createdAt,value
2018-02-12T00:00:33.758Z,90.67
2018-02-12T00:03:02.119Z,90.76
2018-02-12T00:05:30.423Z,90.61
2018-02-12T00:07:59.487Z,90.28
2018-02-12T00:10:27.828Z,89.39
2018-02-12T00:12:56.135Z,88.41
2018-02-12T00:15:24.454Z,87.84
2018-02-12T00:17:52.823Z,87.47
2018-02-12T00:20:21.904Z,87.54
2018-02-12T00:22:50.207Z,88.38
2018-02-12T00:25:18.546Z,88.81
2018-02-12T00:27:46.863Z,89.30
2018-02-12T00:30:15.162Z,90.12
2018-02-12T00:32:43.611Z,90.64
2018-02-12T00:35:11.923Z,91.11
2018-02-12T00:37:40.219Z,91.07
2018-02-12T00:40:08.580Z,91.00
2018-02-12T00:42:36.891Z,91.06
2018-02-12T00:45:05.211Z,91.13
2018-02-12T00:47:33.567Z,91.95
2018-02-12T00:50:02.308Z,92.31
2018-02-12T00:52:30.609Z,92.31
2018-02-12T00:54:59.801Z,92.42
2018-02-12T00:57:28.111Z,92.85
2018-02-12T00:59:57.192Z,93.27
2018-02-12T01:02:25.523Z,93.32
2018-02-12T01:04:53.824Z,93.23
2018-02-12T01:07:22.192Z,93.08
2018-02-12T01:09:50.495Z,93.06
2018-02-12T01:12:18.804Z,93.13
2018-02-12T01:14:47.915Z,92.72
2018-02-12T01:17:16.228Z,92.24
2018-02-12T01:19:44.538Z,91.42
2018-02-12T01:22:12.899Z,91.27
2018-02-12T01:24:41.203Z,91.07
2018-02-12T01:27:10.271Z,91.03
2018-02-12T01:29:38.639Z,90.98
2018-02-12T01:32:07.448Z,91.08
2018-02-12T01:34:35.771Z,91.00
2018-02-12T01:37:04.102Z,90.85
2018-02-12T01:39:32.419Z,90.45
2018-02-12T01:42:00.727Z,90.19
2018-02-12T01:44:29.539Z,90.05
2018-02-12T01:46:57.839Z,89.99
2018-02-12T01:49:26.163Z,90.16
2018-02-12T01:51:54.511Z,90.41
2018-02-12T01:54:23.571Z,90.98
2018-02-12T01:56:51.879Z,91.33
2018-02-12T01:59:20.264Z,91.09
2018-02-12T02:01:48.579Z,91.33
2018-02-12T02:04:16.955Z,91.32
2018-02-12T02:06:45.306Z,91.22
2018-02-12T02:09:13.635Z,91.17
2018-02-12T02:11:41.953Z,91.16
2018-02-12T02:14:10.323Z,90.97
2018-02-12T02:16:38.643Z,90.53
2018-02-12T02:19:06.943Z,90.52
2018-02-12T02:21:35.308Z,90.35
2018-02-12T02:24:04.323Z,90.43
2018-02-12T02:26:32.626Z,90.35
2018-02-12T02:29:01.759Z,90.40
2018-02-12T02:31:30.157Z,90.34
2018-02-12T02:33:59.261Z,90.01
2018-02-12T02:36:27.731Z,90.22
2018-02-12T02:38:56.404Z,90.32
2018-02-12T02:41:24.713Z,90.47
2018-02-12T02:43:53.344Z,90.83
2018-02-12T02:46:21.651Z,91.13
2018-02-12T02:48:49.955Z,91.29
2018-02-12T02:51:18.307Z,91.11
2018-02-12T02:53:46.629Z,90.64
2018-02-12T02:56:14.996Z,90.64
2018-02-12T02:58:43.355Z,90.99
2018-02-12T03:01:11.945Z,91.72
2018-02-12T03:03:41.306Z,91.95
2018-02-12T03:06:10.112Z,91.43
2018-02-12T03:08:38.721Z,91.25
2018-02-12T03:11:07.378Z,91.78
2018-02-12T03:13:36.077Z,92.09
2018-02-12T03:16:04.615Z,92.32
2018-02-12T03:18:39.236Z,92.51
2018-02-12T03:21:07.798Z,92.66
2018-02-12T03:23:36.111Z,92.80
2018-02-12T03:26:04.467Z,92.88
2018-02-12T03:28:32.771Z,93.00
2018-02-12T03:31:01.768Z,93.04
2018-02-12T03:33:30.099Z,93.17
2018-02-12T03:35:58.401Z,93.00
2018-02-12T03:38:26.708Z,92.66
2018-02-12T03:40:55.081Z,92.45
2018-02-12T03:43:23.384Z,92.01
2018-02-12T03:45:52.668Z,91.45
2018-02-12T03:48:21.213Z,91.49
2018-02-12T03:50:49.534Z,91.55
2018-02-12T03:53:17.849Z,91.43
2018-02-12T03:55:46.401Z,91.28
2018-02-12T03:58:14.707Z,90.99
2018-02-12T04:00:43.052Z,90.76
2018-02-12T04:03:11.460Z,91.04
2018-02-12T04:05:40.528Z,90.96
2018-02-12T04:08:08.834Z,90.71
2018-02-12T04:10:37.595Z,90.51
2018-02-12T04:13:05.899Z,90.33
2018-02-12T04:15:34.301Z,90.12
2018-02-12T04:18:02.674Z,89.08
2018-02-12T04:20:31.751Z,90.21
2018-02-12T04:23:00.285Z,90.50
2018-02-12T04:25:28.823Z,90.43
2018-02-12T04:27:57.140Z,90.34
2018-02-12T04:30:25.445Z,90.15
2018-02-12T04:32:53.952Z,89.22
2018-02-12T04:35:23.036Z,89.03
2018-02-12T04:37:51.495Z,88.76
2018-02-12T04:40:20.488Z,88.73
2018-02-12T04:42:48.795Z,89.02
2018-02-12T04:45:17.108Z,88.53
2018-02-12T04:47:45.463Z,88.43
2018-02-12T04:50:14.540Z,88.48
2018-02-12T04:52:42.844Z,88.04
2018-02-12T04:55:11.981Z,88.10
2018-02-12T04:57:40.296Z,88.67
2018-02-12T05:00:08.611Z,89.28
2018-02-12T05:02:37.023Z,89.08
2018-02-12T05:05:05.345Z,88.67
2018-02-12T05:07:33.643Z,88.47
2018-02-12T05:10:02.008Z,88.41
2018-02-12T05:12:30.315Z,88.24
2018-02-12T05:14:58.629Z,88.43
2018-02-12T05:17:27.004Z,88.10
2018-02-12T05:19:55.307Z,88.47
2018-02-12T05:22:24.259Z,88.52
2018-02-12T05:24:53.671Z,88.38
2018-02-12T05:27:21.975Z,88.42
2018-02-12T05:29:50.276Z,88.57
2018-02-12T05:32:18.618Z,88.48
2018-02-12T05:34:46.940Z,88.62
2018-02-12T05:37:15.247Z,88.41
2018-02-12T05:39:43.630Z,88.27
2018-02-12T05:42:11.982Z,88.26
2018-02-12T05:44:40.335Z,88.27
2018-02-12T05:47:09.496Z,88.60
2018-02-12T05:49:37.804Z,88.36
2018-02-12T05:52:06.207Z,88.44
2018-02-12T05:54:34.543Z,88.15
2018-02-12T05:57:02.852Z,88.19
2018-02-12T05:59:31.224Z,88.48
2018-02-12T06:02:00.299Z,88.84
2018-02-12T06:04:28.611Z,88.75
2018-02-12T06:06:56.995Z,88.53
2018-02-12T06:09:25.352Z,89.04
2018-02-12T06:11:54.439Z,89.56
2018-02-12T06:14:23.551Z,89.69
2018-02-12T06:16:52.619Z,87.57
2018-02-12T06:19:20.932Z,85.87
2018-02-12T06:21:49.285Z,84.37
2018-02-12T06:24:17.598Z,82.35
2018-02-12T06:26:45.912Z,79.90
2018-02-12T06:29:14.266Z,80.78
2018-02-12T06:31:42.571Z,80.51
2018-02-12T06:34:10.876Z,79.28
2018-02-12T06:36:39.208Z,79.79
2018-02-12T06:39:07.511Z,80.71
2018-02-12T06:41:35.851Z,81.00
2018-02-12T06:44:04.387Z,80.44
2018-02-12T06:46:32.691Z,81.71
2018-02-12T06:49:01.013Z,82.90
2018-02-12T06:51:29.368Z,83.29
2018-02-12T06:53:57.783Z,83.63
2018-02-12T06:56:26.147Z,84.28
2018-02-12T06:58:54.455Z,83.97
2018-02-12T07:01:22.825Z,84.36
2018-02-12T07:03:51.168Z,83.42
2018-02-12T07:06:19.488Z,83.96
2018-02-12T07:08:47.803Z,83.35
2018-02-12T07:11:16.144Z,83.30
2018-02-12T07:13:44.461Z,81.76
2018-02-12T07:16:12.784Z,82.54
2018-02-12T07:18:41.133Z,80.87
2018-02-12T07:21:09.432Z,81.05
2018-02-12T07:23:37.755Z,80.91
2018-02-12T07:26:06.859Z,81.71
2018-02-12T07:28:35.171Z,82.96
2018-02-12T07:31:03.487Z,83.30
2018-02-12T07:33:31.886Z,84.06
2018-02-12T07:36:00.204Z,84.61
2018-02-12T07:38:28.516Z,84.38
2018-02-12T07:40:56.912Z,83.81
2018-02-12T07:43:25.227Z,83.66
2018-02-12T07:45:53.531Z,83.21
2018-02-12T07:48:21.974Z,81.75
2018-02-12T07:50:50.284Z,80.78
2018-02-12T07:53:18.596Z,80.76
2018-02-12T07:55:46.948Z,79.68
2018-02-12T07:58:15.251Z,80.00
2018-02-12T08:00:44.320Z,79.66
2018-02-12T08:03:12.656Z,79.59
2018-02-12T08:05:40.971Z,79.06
2018-02-12T08:08:09.281Z,79.09
2018-02-12T08:10:37.632Z,78.88
2018-02-12T08:13:05.922Z,79.90
2018-02-12T08:15:34.992Z,80.06
2018-02-12T08:18:04.131Z,80.14
2018-02-12T08:20:32.438Z,79.42
2018-02-12T08:23:00.748Z,78.51
2018-02-12T08:25:29.098Z,77.85
2018-02-12T08:27:57.408Z,77.14
2018-02-12T08:30:25.711Z,76.96
2018-02-12T08:32:54.156Z,78.06
2018-02-12T08:35:22.455Z,77.17
2018-02-12T08:37:50.747Z,76.43
2018-02-12T08:40:19.082Z,74.36
2018-02-12T08:42:47.388Z,73.54
2018-02-12T08:45:15.688Z,71.43
2018-02-12T08:47:44.053Z,70.66
2018-02-12T08:50:13.120Z,70.63
2018-02-12T08:52:41.424Z,70.14
2018-02-12T08:55:10.563Z,70.37
2018-02-12T08:57:38.868Z,69.94
2018-02-12T09:00:07.166Z,70.18
2018-02-12T09:02:35.529Z,69.15
2018-02-12T09:05:03.836Z,70.41
2018-02-12T09:07:32.159Z,67.85
2018-02-12T09:10:00.624Z,69.38
2018-02-12T09:12:28.983Z,68.14
2018-02-12T09:14:57.299Z,69.18
2018-02-12T09:17:25.665Z,68.60
2018-02-12T09:19:53.971Z,67.31
2018-02-12T09:22:22.284Z,67.43
2018-02-12T09:24:50.727Z,67.30
2018-02-12T09:27:19.032Z,64.74
2018-02-12T09:29:47.340Z,64.26
2018-02-12T09:32:15.684Z,65.67
2018-02-12T09:34:43.978Z,63.64
2018-02-12T09:37:13.075Z,64.00
2018-02-12T09:39:41.640Z,62.68
2018-02-12T09:42:09.958Z,62.36
2018-02-12T09:44:38.258Z,61.52
2018-02-12T09:47:06.603Z,63.50
2018-02-12T09:49:34.908Z,63.30
2018-02-12T09:52:03.215Z,63.00
2018-02-12T09:54:31.571Z,64.20
2018-02-12T09:56:59.887Z,65.03
2018-02-12T09:59:28.960Z,63.50
2018-02-12T10:01:57.683Z,64.22
2018-02-12T10:04:25.978Z,62.59
2018-02-12T10:06:54.295Z,63.04
2018-02-12T10:09:22.620Z,61.66
2018-02-12T10:11:50.931Z,62.53
2018-02-12T10:14:20.208Z,63.17
2018-02-12T10:16:48.508Z,62.37
2018-02-12T10:19:16.827Z,61.64
2018-02-12T10:21:45.957Z,61.66
2018-02-12T10:24:14.263Z,60.43
2018-02-12T10:26:42.577Z,59.34
2018-02-12T10:29:10.908Z,57.52
2018-02-12T10:31:39.217Z,57.04
2018-02-12T10:34:07.519Z,57.89
2018-02-12T10:36:36.627Z,56.24
2018-02-12T10:39:04.926Z,54.91
2018-02-12T10:41:33.223Z,55.82
2018-02-12T10:44:01.552Z,55.46
2018-02-12T10:46:29.862Z,56.25
2018-02-12T10:48:58.228Z,54.34
2018-02-12T10:51:26.543Z,54.25
2018-02-12T10:53:54.866Z,55.58
2018-02-12T10:56:23.212Z,54.65
2018-02-12T10:58:51.519Z,54.63
2018-02-12T11:01:19.829Z,56.40
2018-02-12T11:03:48.177Z,56.09
2018-02-12T11:06:16.476Z,56.84
2018-02-12T11:08:44.784Z,56.39
2018-02-12T11:11:13.173Z,56.69
2018-02-12T11:13:41.479Z,57.19
2018-02-12T11:16:09.794Z,55.88
2018-02-12T11:18:38.439Z,54.23
2018-02-12T11:21:06.768Z,54.03
2018-02-12T11:23:35.073Z,53.17
2018-02-12T11:26:03.796Z,52.63
2018-02-12T11:28:32.096Z,52.54
2018-02-12T11:31:00.405Z,52.81
2018-02-12T11:33:28.776Z,53.16
2018-02-12T11:35:57.088Z,53.01
2018-02-12T11:38:26.160Z,51.49
2018-02-12T11:40:54.520Z,52.09
2018-02-12T11:43:22.838Z,51.68
2018-02-12T11:45:51.150Z,52.84
2018-02-12T11:48:19.659Z,54.01
2018-02-12T11:50:47.979Z,54.29
2018-02-12T11:53:16.289Z,55.21
2018-02-12T11:55:44.648Z,54.71
2018-02-12T11:58:12.952Z,52.26
2018-02-12T12:00:41.249Z,54.67
2018-02-12T12:03:09.963Z,53.44
2018-02-12T12:05:38.263Z,53.24
2018-02-12T12:08:07.342Z,53.09
2018-02-12T12:10:36.467Z,51.99
2018-02-12T12:13:04.840Z,53.69
2018-02-12T12:15:33.139Z,54.59
2018-02-12T12:18:01.491Z,54.92
2018-02-12T12:20:29.800Z,54.82
2018-02-12T12:22:58.096Z,54.60
2018-02-12T12:25:26.468Z,55.18
2018-02-12T12:27:54.776Z,55.74
2018-02-12T12:30:23.080Z,54.90
2018-02-12T12:32:51.431Z,54.67
2018-02-12T12:35:19.727Z,54.03
2018-02-12T12:37:48.036Z,52.18
2018-02-12T12:40:16.698Z,52.03
2018-02-12T12:42:45.016Z,50.57
2018-02-12T12:45:13.316Z,50.91
2018-02-12T12:47:41.651Z,51.12
2018-02-12T12:50:09.956Z,50.52
2018-02-12T12:52:38.267Z,51.09
2018-02-12T12:55:06.638Z,51.51
2018-02-12T12:57:35.708Z,50.57
2018-02-12T13:00:04.007Z,50.52
2018-02-12T13:02:32.365Z,51.67
2018-02-12T13:05:00.676Z,51.79
2018-02-12T13:07:28.976Z,50.52
2018-02-12T13:09:57.342Z,50.32
2018-02-12T13:12:25.655Z,52.51
2018-02-12T13:14:53.967Z,57.17
2018-02-12T13:17:22.321Z,57.65
2018-02-12T13:19:50.627Z,57.67
2018-02-12T13:22:18.932Z,58.92
2018-02-12T13:24:47.288Z,59.20
2018-02-12T13:27:15.609Z,59.53
2018-02-12T13:29:43.911Z,58.73
2018-02-12T13:32:12.263Z,58.78
2018-02-12T13:34:40.560Z,59.93
2018-02-12T13:37:08.859Z,59.12
2018-02-12T13:39:37.221Z,60.02
2018-02-12T13:42:05.554Z,60.45
2018-02-12T13:44:33.872Z,60.37
2018-02-12T13:47:02.260Z,58.86
2018-02-12T13:49:30.562Z,55.80
2018-02-12T13:51:59.636Z,54.74
2018-02-12T13:54:27.985Z,55.73
2018-02-12T13:56:56.303Z,54.62
2018-02-12T13:59:24.607Z,53.54
2018-02-12T14:01:53.035Z,54.38
2018-02-12T14:04:21.331Z,55.24
2018-02-12T14:06:49.632Z,55.90
2018-02-12T14:09:18.056Z,55.39
2018-02-12T14:11:48.108Z,55.50
2018-02-12T14:14:16.425Z,56.23
2018-02-12T14:16:45.426Z,56.09
2018-02-12T14:19:13.735Z,61.69
2018-02-12T14:21:42.027Z,64.50
2018-02-12T14:24:10.486Z,67.64
2018-02-12T14:26:38.776Z,69.56
2018-02-12T14:29:07.084Z,70.28
2018-02-12T14:31:36.203Z,71.07
2018-02-12T14:34:04.504Z,70.19
2018-02-12T14:36:33.040Z,69.63
2018-02-12T14:39:01.424Z,70.05
2018-02-12T14:41:30.507Z,70.05
2018-02-12T14:43:58.831Z,69.38
2018-02-12T14:46:27.190Z,70.42
2018-02-12T14:48:55.501Z,72.55
2018-02-12T14:51:23.807Z,73.65
2018-02-12T14:53:52.162Z,73.61
2018-02-12T14:56:20.520Z,74.52
2018-02-12T14:58:48.799Z,75.82
2018-02-12T15:01:17.140Z,76.95
2018-02-12T15:03:46.205Z,77.84
2018-02-12T15:06:14.519Z,79.38
2018-02-12T15:08:42.883Z,80.42
2018-02-12T15:11:11.231Z,81.41
2018-02-12T15:13:39.528Z,81.70
2018-02-12T15:16:08.440Z,83.17
2018-02-12T15:18:37.508Z,83.97
2018-02-12T15:21:05.820Z,84.19
2018-02-12T15:23:34.935Z,83.14
2018-02-12T15:26:03.240Z,83.76
2018-02-12T15:28:31.547Z,84.24
2018-02-12T15:30:59.948Z,84.06
2018-02-12T15:33:28.618Z,83.73
2018-02-12T15:35:56.938Z,83.72
2018-02-12T15:38:25.307Z,83.60
2018-02-12T15:40:53.603Z,82.57
2018-02-12T15:43:21.918Z,82.72
2018-02-12T15:45:50.255Z,83.00
2018-02-12T15:48:18.579Z,82.06
2018-02-12T15:50:46.930Z,82.67
2018-02-12T15:53:15.280Z,81.62
2018-02-12T15:55:43.584Z,81.27
2018-02-12T15:58:11.891Z,80.45
2018-02-12T16:00:40.268Z,79.73
2018-02-12T16:03:08.599Z,78.09
2018-02-12T16:05:36.912Z,75.33
2018-02-12T16:08:05.278Z,75.47
2018-02-12T16:10:33.583Z,74.70
2018-02-12T16:13:02.672Z,73.23
2018-02-12T16:15:31.861Z,73.76
2018-02-12T16:18:00.195Z,72.83
2018-02-12T16:20:28.500Z,73.64
2018-02-12T16:22:56.870Z,73.47
2018-02-12T16:25:25.177Z,73.51
2018-02-12T16:27:53.488Z,72.60
2018-02-12T16:30:21.852Z,72.79
2018-02-12T16:32:50.156Z,73.09
2018-02-12T16:35:18.459Z,72.11
2018-02-12T16:37:46.822Z,72.17
2018-02-12T16:40:15.131Z,72.57
2018-02-12T16:42:43.440Z,72.20
2018-02-12T16:45:11.806Z,72.44
2018-02-12T16:47:40.126Z,73.71
2018-02-12T16:50:08.482Z,72.89
2018-02-12T16:52:36.899Z,73.41
2018-02-12T16:55:05.195Z,71.79
2018-02-12T16:57:33.503Z,70.79
2018-02-12T17:00:02.639Z,70.20
2018-02-12T17:02:30.951Z,69.85
2018-02-12T17:04:59.269Z,69.77
2018-02-12T17:07:27.604Z,68.86
2018-02-12T17:09:55.919Z,68.91
2018-02-12T17:12:24.235Z,70.15
2018-02-12T17:14:52.582Z,69.01
2018-02-12T17:17:20.885Z,68.73
2018-02-12T17:19:49.203Z,67.95
2018-02-12T17:22:17.531Z,67.64
2018-02-12T17:24:45.848Z,67.78
2018-02-12T17:27:14.235Z,68.14
2018-02-12T17:29:42.550Z,66.96
2018-02-12T17:32:10.868Z,68.29
2018-02-12T17:34:39.312Z,68.15
2018-02-12T17:37:07.611Z,69.36
2018-02-12T17:39:35.915Z,69.44
2018-02-12T17:42:04.264Z,69.53
2018-02-12T17:44:32.576Z,70.44
2018-02-12T17:47:00.932Z,71.27
2018-02-12T17:49:29.276Z,71.65
2018-02-12T17:51:57.573Z,73.37
2018-02-12T17:54:25.947Z,74.89
2018-02-12T17:56:54.264Z,75.27
2018-02-12T17:59:22.578Z,75.80
2018-02-12T18:01:50.939Z,76.65
2018-02-12T18:04:20.020Z,77.73
2018-02-12T18:06:48.340Z,78.12
2018-02-12T18:09:16.795Z,78.53
2018-02-12T18:11:45.879Z,78.64
2018-02-12T18:14:14.187Z,78.80
2018-02-12T18:16:42.576Z,78.72
2018-02-12T18:19:10.895Z,78.84
2018-02-12T18:21:39.208Z,78.81
2018-02-12T18:24:08.440Z,79.19
2018-02-12T18:26:36.795Z,79.80
2018-02-12T18:29:05.444Z,81.07
2018-02-12T18:31:33.803Z,82.62
2018-02-12T18:34:02.125Z,82.54
2018-02-12T18:36:30.464Z,83.40
2018-02-12T18:38:58.847Z,84.10
2018-02-12T18:41:27.160Z,84.55
2018-02-12T18:43:55.500Z,85.18
2018-02-12T18:46:24.659Z,85.74
2018-02-12T18:48:53.006Z,85.80
2018-02-12T18:51:21.378Z,85.73
2018-02-12T18:53:49.904Z,86.49
2018-02-12T18:56:18.520Z,86.39
2018-02-12T18:58:46.836Z,86.55
2018-02-12T19:01:15.201Z,87.28
2018-02-12T19:03:43.526Z,87.71
2018-02-12T19:06:11.850Z,87.70
2018-02-12T19:08:40.212Z,86.55
2018-02-12T19:11:08.529Z,86.28
2018-02-12T19:13:36.872Z,86.12
2018-02-12T19:16:05.184Z,86.45
2018-02-12T19:18:33.499Z,86.38
2018-02-12T19:21:01.863Z,86.28
2018-02-12T19:23:30.172Z,86.17
2018-02-12T19:25:58.488Z,86.21
2018-02-12T19:28:27.619Z,86.54
2018-02-12T19:30:55.927Z,86.96
2018-02-12T19:33:24.247Z,87.19
2018-02-12T19:35:52.608Z,87.81
2018-02-12T19:38:21.680Z,87.76
2018-02-12T19:40:49.995Z,87.91
2018-02-12T19:43:19.120Z,87.39
2018-02-12T19:45:47.446Z,86.61
2018-02-12T19:48:15.801Z,85.55
2018-02-12T19:50:44.954Z,84.98
2018-02-12T19:53:13.272Z,84.62
2018-02-12T19:55:41.584Z,84.75
2018-02-12T19:58:09.976Z,85.23
2018-02-12T20:00:38.294Z,84.12
2018-02-12T20:03:07.073Z,83.50
2018-02-12T20:05:35.435Z,83.56
2018-02-12T20:08:04.507Z,83.22
2018-02-12T20:10:33.631Z,83.37
2018-02-12T20:13:03.035Z,82.31
2018-02-12T20:15:31.364Z,81.19
2018-02-12T20:17:59.671Z,80.02
2018-02-12T20:20:28.043Z,80.14
2018-02-12T20:22:56.356Z,79.80
2018-02-12T20:25:24.673Z,80.53
2018-02-12T20:27:53.418Z,80.18
2018-02-12T20:30:21.744Z,80.67
2018-02-12T20:32:50.137Z,81.51
2018-02-12T20:35:19.267Z,82.48
2018-02-12T20:37:47.594Z,83.17
2018-02-12T20:40:15.935Z,83.88
2018-02-12T20:42:44.299Z,83.88
2018-02-12T20:45:12.620Z,84.10
2018-02-12T20:47:40.940Z,85.09
2018-02-12T20:50:09.287Z,85.40
2018-02-12T20:52:37.607Z,85.65
2018-02-12T20:55:05.949Z,85.98
2018-02-12T20:57:34.320Z,86.36
2018-02-12T21:00:02.644Z,87.12
2018-02-12T21:02:30.972Z,87.80
2018-02-12T21:04:59.863Z,88.47
2018-02-12T21:07:28.184Z,89.06
2018-02-12T21:09:56.511Z,88.91
2018-02-12T21:12:24.868Z,88.58
2018-02-12T21:14:53.226Z,88.43
2018-02-12T21:17:21.538Z,88.42
2018-02-12T21:19:49.892Z,87.81
2018-02-12T21:22:18.216Z,86.96
2018-02-12T21:24:46.545Z,86.46
2018-02-12T21:27:14.928Z,86.22
2018-02-12T21:29:43.251Z,86.13
2018-02-12T21:32:11.591Z,86.38
2018-02-12T21:34:40.317Z,86.63
2018-02-12T21:37:09.400Z,86.80
2018-02-12T21:39:37.721Z,85.92
2018-02-12T21:42:06.109Z,85.96
2018-02-12T21:44:34.453Z,85.87
2018-02-12T21:47:03.553Z,86.09
2018-02-12T21:49:32.693Z,85.78
2018-02-12T21:52:01.013Z,85.69
2018-02-12T21:54:29.340Z,85.70
2018-02-12T21:56:57.920Z,85.87
2018-02-12T21:59:26.252Z,85.48
2018-02-12T22:01:54.572Z,84.91
2018-02-12T22:04:22.956Z,84.59
2018-02-12T22:06:51.279Z,85.05
2018-02-12T22:09:19.614Z,85.51
2018-02-12T22:11:47.975Z,85.73
2018-02-12T22:14:16.304Z,85.53
2018-02-12T22:16:44.631Z,85.56
2018-02-12T22:19:12.972Z,85.71
2018-02-12T22:21:41.296Z,85.89
2018-02-12T22:24:10.424Z,86.24
2018-02-12T22:26:38.755Z,86.41
2018-02-12T22:29:07.132Z,86.81
2018-02-12T22:31:36.218Z,86.80
2018-02-12T22:34:05.291Z,86.92
2018-02-12T22:36:33.595Z,87.13
2018-02-12T22:39:03.116Z,87.56
2018-02-12T22:41:31.424Z,88.06
2018-02-12T22:43:59.736Z,88.34
2018-02-12T22:46:28.116Z,88.62
2018-02-12T22:48:57.207Z,88.98
2018-02-12T22:51:25.515Z,88.85
2018-02-12T22:53:54.630Z,88.90
2018-02-12T22:56:22.943Z,89.70
2018-02-12T22:58:51.312Z,90.79
2018-02-12T23:01:19.651Z,91.25
2018-02-12T23:03:47.968Z,91.76
2018-02-12T23:06:16.620Z,91.64
2018-02-12T23:08:44.940Z,91.55
2018-02-12T23:11:13.255Z,91.44
2018-02-12T23:13:41.599Z,91.61
2018-02-12T23:16:09.920Z,91.99
2018-02-12T23:18:38.237Z,92.01
2018-02-12T23:21:06.623Z,92.17
2018-02-12T23:23:35.726Z,92.10
2018-02-12T23:26:04.044Z,92.03
2018-02-12T23:28:32.391Z,91.59
2018-02-12T23:31:00.699Z,91.22
2018-02-12T23:33:29.309Z,90.82
2018-02-12T23:35:57.675Z,90.54
2018-02-12T23:38:25.989Z,89.38
2018-02-12T23:40:54.307Z,88.89
2018-02-12T23:43:23.558Z,88.68
2018-02-12T23:45:51.903Z,88.08
2018-02-12T23:48:20.227Z,87.67
2018-02-12T23:50:48.605Z,87.73
2018-02-12T23:53:16.920Z,87.71
2018-02-12T23:55:46.004Z,88.14
2018-02-12T23:58:15.111Z,88.00
